Time;durP1;ratioP1;P1;durP2;ratioP2;P2;SDS_P1;SDS_P2;PMS_P1;PMS_P2;Temp;Humidity;BMP_temperature;BMP_pressure;BME280_temperature;BME280_humidity;BME280_pressure;Samples;Min_cycle;Max_cycle;Signal;HPM_P1;HPM_P2
2022/12/08 00:04:20;;;;;;;6.22;2.55;;;;;;;-0.70;100.00;101553.06;10452939;28;20056;-80
2022/12/08 00:09:31;;;;;;;8.60;2.60;;;;;;;-0.72;100.00;101541.00;10443534;28;20046;-82
2022/12/08 00:14:38;;;;;;;6.45;2.80;;;;;;;-1.15;100.00;101475.88;10418302;28;20516;-81
2022/12/08 00:19:41;;;;;;;6.25;2.83;;;;;;;-0.79;100.00;101534.34;10418126;28;20084;-81
2022/12/08 00:24:44;;;;;;;6.80;2.65;;;;;;;-1.57;100.00;101404.72;10417717;28;20144;-80
2022/12/08 00:29:45;;;;;;;7.22;3.22;;;;;;;-0.90;100.00;101516.53;10422534;28;20081;-81
2022/12/08 00:34:46;;;;;;;6.75;2.47;;;;;;;-0.90;100.00;101516.53;10422947;28;20548;-81
2022/12/08 00:39:47;;;;;;;8.13;2.13;;;;;;;-0.71;100.00;101538.34;10416593;28;20456;-81
2022/12/08 00:44:47;;;;;;;7.90;2.47;;;;;;;-0.66;100.00;101542.50;10417688;28;20057;-81
2022/12/08 00:49:48;;;;;;;7.40;2.30;;;;;;;-0.61;100.00;101541.38;10416565;28;20040;-81
2022/12/08 00:54:49;;;;;;;4.85;2.33;;;;;;;-0.74;100.00;101525.41;10416591;28;20046;-82
2022/12/08 00:59:50;;;;;;;7.32;2.38;;;;;;;-0.70;100.00;101529.59;10415635;28;20076;-81
2022/12/08 01:04:50;;;;;;;7.90;2.05;;;;;;;-0.60;100.00;101548.31;10415528;28;20033;-81
2022/12/08 01:09:51;;;;;;;6.68;2.35;;;;;;;-0.74;100.00;101527.19;10416854;28;20041;-80
2022/12/08 01:14:52;;;;;;;5.35;2.38;;;;;;;-1.47;100.00;101406.84;10415291;28;20072;-81
2022/12/08 01:19:53;;;;;;;10.55;2.22;;;;;;;-0.63;100.00;101535.38;10415410;28;20484;-82
2022/12/08 01:24:54;;;;;;;5.97;2.35;;;;;;;-0.84;100.00;101497.19;10415748;28;20041;-83
2022/12/08 01:29:54;;;;;;;6.97;2.33;;;;;;;-0.65;100.00;101532.00;10415943;28;20037;-79
2022/12/08 01:34:55;;;;;;;9.27;2.75;;;;;;;-0.55;100.00;101550.72;10416358;28;20048;-81
2022/12/08 01:39:56;;;;;;;8.02;2.30;;;;;;;-0.48;100.00;101557.34;10415040;28;20119;-82
2022/12/08 01:45:02;;;;;;;8.10;2.67;;;;;;;-0.46;100.00;101548.53;10414494;28;20420;-80
2022/12/08 01:50:07;;;;;;;6.57;2.35;;;;;;;-0.41;100.00;101561.41;10415063;28;20050;-81
2022/12/08 01:55:15;;;;;;;7.13;2.13;;;;;;;-0.39;100.00;101559.59;10428676;28;20449;-80
2022/12/08 02:00:19;;;;;;;7.05;1.92;;;;;;;-0.34;100.00;101559.38;10413868;28;20045;-81
2022/12/08 02:05:23;;;;;;;5.90;2.20;;;;;;;-0.41;100.00;101547.50;10413256;28;20128;-81
2022/12/08 02:10:29;;;;;;;5.72;2.08;;;;;;;-0.89;100.00;101457.41;10413897;28;20045;-82
2022/12/08 02:15:45;;;;;;;9.70;2.58;;;;;;;-0.22;100.00;101571.88;10413181;28;20041;-82
2022/12/08 02:21:12;;;;;;;6.03;1.75;;;;;;;-0.17;100.00;101567.28;10414138;28;20042;-82
2022/12/08 02:26:50;;;;;;;3.50;1.58;;;;;;;-0.14;100.00;101567.16;10412985;28;20037;-81
2022/12/08 02:32:22;;;;;;;10.30;1.88;;;;;;;-0.11;100.00;101569.63;10424516;28;20041;-81
2022/12/08 02:37:31;;;;;;;5.55;1.80;;;;;;;-0.32;100.00;101528.81;10412815;28;20052;-81
2022/12/08 02:42:47;;;;;;;4.72;1.90;;;;;;;-0.29;100.00;101539.13;10412767;28;20099;-81
2022/12/08 02:47:48;;;;;;;5.78;1.50;;;;;;;-0.41;100.00;101513.56;10413622;28;20065;-80
2022/12/08 02:52:49;;;;;;;4.03;1.35;;;;;;;-0.05;100.00;101566.75;10411697;28;20053;-81
2022/12/08 02:58:14;;;;;;;4.47;1.40;;;;;;;-0.02;100.00;101574.44;10412622;28;20052;-82
2022/12/08 03:03:23;;;;;;;3.40;0.90;;;;;;;-0.01;100.00;101567.44;10424270;28;20482;-83
2022/12/08 03:08:51;;;;;;;3.90;1.13;;;;;;;-0.08;100.00;101558.19;10411671;28;20038;-82
2022/12/08 03:13:58;;;;;;;4.85;1.30;;;;;;;0.02;100.00;101574.28;10443472;28;20045;-80
2022/12/08 03:19:18;;;;;;;5.55;1.20;;;;;;;-0.10;100.00;101560.03;10433794;28;20435;-84
2022/12/08 03:24:22;;;;;;;4.45;1.20;;;;;;;0.02;100.00;101574.28;10412522;28;20073;-83
2022/12/08 03:29:23;;;;;;;4.55;1.45;;;;;;;-0.03;100.00;101572.75;10417696;28;20029;-83
2022/12/08 03:34:27;;;;;;;5.22;1.40;;;;;;;0.14;100.00;101592.84;10449751;28;20056;-82
2022/12/08 03:39:27;;;;;;;3.65;1.15;;;;;;;0.13;100.00;101577.28;10419504;28;20037;-83
2022/12/08 03:44:29;;;;;;;3.85;1.27;;;;;;;-0.34;100.00;101501.91;10417882;28;20057;-84
2022/12/08 03:49:29;;;;;;;6.00;1.73;;;;;;;0.23;100.00;101591.59;10418893;28;20048;-82
2022/12/08 03:54:30;;;;;;;5.53;1.45;;;;;;;-0.40;100.00;101476.94;10417839;28;20391;-88
2022/12/08 03:59:31;;;;;;;6.93;1.70;;;;;;;0.32;100.00;101600.78;10436506;28;20047;-89
2022/12/08 04:04:32;;;;;;;3.08;1.38;;;;;;;0.35;100.00;101609.31;10458836;28;20048;-86
2022/12/08 04:09:33;;;;;;;4.60;1.50;;;;;;;-0.28;100.00;101499.88;10458793;28;20041;-79
2022/12/08 04:14:33;;;;;;;7.15;1.98;;;;;;;0.30;100.00;101589.53;10459062;28;20065;-90
2022/12/08 04:19:34;;;;;;;9.75;2.10;;;;;;;0.28;100.00;101587.00;10458550;28;20045;-85
2022/12/08 04:24:35;;;;;;;4.72;1.70;;;;;;;0.06;100.00;101540.13;10457779;28;20037;-80
2022/12/08 04:29:36;;;;;;;5.65;1.98;;;;;;;0.40;100.00;101598.66;10457580;28;20051;-82
2022/12/08 04:34:37;;;;;;;5.82;1.80;;;;;;;0.37;100.00;101589.19;10458306;28;20044;-80
2022/12/08 04:39:37;;;;;;;5.18;1.30;;;;;;;-0.24;100.00;101487.50;10457129;28;20098;-80
2022/12/08 04:44:38;;;;;;;5.30;1.70;;;;;;;0.05;100.00;101540.19;10457124;28;20079;-82
2022/12/08 04:49:39;;;;;;;5.55;1.60;;;;;;;0.58;100.00;101630.94;10441484;28;20076;-82
2022/12/08 04:54:40;;;;;;;3.28;1.10;;;;;;;0.61;100.00;101620.34;10445242;28;20150;-92
2022/12/08 04:59:40;;;;;;;5.78;1.60;;;;;;;0.59;100.00;101611.69;10435165;28;20044;-93
2022/12/08 05:04:41;;;;;;;4.70;1.60;;;;;;;0.59;100.00;101619.53;10458587;28;20114;-94
2022/12/08 05:09:42;;;;;;;6.10;1.85;;;;;;;0.53;100.00;101612.00;10459581;28;20044;-92
2022/12/08 05:14:43;;;;;;;6.10;2.00;;;;;;;0.47;100.00;101607.06;10458107;28;20158;-92
2022/12/08 05:19:44;;;;;;;4.88;1.58;;;;;;;0.61;100.00;101623.78;10457761;28;20048;-93
2022/12/08 05:24:45;;;;;;;12.80;1.83;;;;;;;-0.03;100.00;101520.50;10457371;28;20051;-94
2022/12/08 05:29:47;;;;;;;7.00;1.90;;;;;;;0.74;100.00;101642.34;10457995;28;20119;-91
2022/12/08 05:34:47;;;;;;;5.63;1.92;;;;;;;0.71;100.00;101646.88;10457639;28;20166;-91
2022/12/08 05:39:48;;;;;;;6.93;1.98;;;;;;;0.81;100.00;101667.31;10456508;28;20131;-92
2022/12/08 05:44:49;;;;;;;6.00;1.48;;;;;;;0.85;100.00;101668.84;10457056;28;20143;-91
2022/12/08 05:49:50;;;;;;;6.45;1.58;;;;;;;0.64;100.00;101633.25;10457678;28;20045;-90
2022/12/08 05:54:50;;;;;;;4.70;1.38;;;;;;;0.47;100.00;101593.97;10458179;28;20047;-91
2022/12/08 05:59:51;;;;;;;5.30;1.80;;;;;;;0.81;100.00;101649.00;10456950;28;20045;-90
2022/12/08 06:04:52;;;;;;;6.57;2.67;;;;;;;0.91;100.00;101638.94;10455858;28;20044;-90
2022/12/08 06:09:53;;;;;;;25.98;5.70;;;;;;;1.11;100.00;101659.75;10455804;28;20041;-91
2022/12/08 06:14:54;;;;;;;31.23;8.45;;;;;;;1.08;100.00;101635.50;10457793;28;20037;-92
2022/12/08 06:19:54;;;;;;;21.65;6.30;;;;;;;1.27;100.00;101657.22;10455845;28;20045;-91
2022/12/08 06:24:55;;;;;;;16.25;5.72;;;;;;;0.58;100.00;101545.50;10458214;28;20068;-89
2022/12/08 06:29:56;;;;;;;20.60;8.88;;;;;;;0.91;100.00;101590.06;10457569;28;20040;-92
2022/12/08 06:34:57;;;;;;;16.80;6.50;;;;;;;1.30;100.00;101638.75;10457610;28;20498;-92
2022/12/08 06:39:58;;;;;;;14.85;5.47;;;;;;;0.85;100.00;101552.91;10457327;28;20045;-89
2022/12/08 06:44:59;;;;;;;10.55;2.58;;;;;;;1.10;100.00;101576.91;10456430;28;20706;-91
2022/12/08 06:50:00;;;;;;;20.58;5.97;;;;;;;1.61;100.00;101660.75;10461812;28;20037;-91
2022/12/08 06:55:01;;;;;;;7.68;2.72;;;;;;;1.67;100.00;101670.94;10465330;28;20049;-91
2022/12/08 07:00:05;;;;;;;8.65;2.13;;;;;;;1.33;100.00;101628.13;10465905;28;20094;-92
2022/12/08 07:05:06;;;;;;;11.10;4.85;;;;;;;1.04;100.00;101592.94;10465613;28;20045;-91
2022/12/08 07:10:07;;;;;;;6.47;2.70;;;;;;;1.49;100.00;101654.38;10465223;28;20039;-92
2022/12/08 07:15:08;;;;;;;5.25;2.00;;;;;;;1.73;100.00;101701.22;10464959;28;20047;-92
2022/12/08 07:20:09;;;;;;;6.28;2.05;;;;;;;1.73;100.00;101707.28;10465219;28;20045;-91
2022/12/08 07:25:10;;;;;;;6.05;2.70;;;;;;;1.76;100.00;101696.66;10464154;28;20484;-92
2022/12/08 07:30:12;;;;;;;4.78;2.35;;;;;;;1.71;100.00;101679.50;10464343;28;20041;-92
2022/12/08 07:35:12;;;;;;;4.28;1.75;;;;;;;1.28;100.00;101634.50;10463959;28;20481;-94
2022/12/08 07:40:14;;;;;;;5.13;2.00;;;;;;;1.70;100.00;101680.41;10464068;28;20045;-93
2022/12/08 07:45:14;;;;;;;10.05;2.55;;;;;;;1.12;100.00;101579.47;10462296;28;20080;-92
2022/12/08 07:50:15;;;;;;;4.13;1.90;;;;;;;1.40;100.00;101620.81;10462836;28;20103;-92
2022/12/08 07:55:16;;;;;;;4.55;1.98;;;;;;;1.97;100.00;101699.94;10463505;28;20051;-91
2022/12/08 08:00:18;;;;;;;9.63;2.53;;;;;;;1.52;100.00;101614.94;10462375;28;20041;-91
2022/12/08 08:05:19;;;;;;;4.53;2.40;;;;;;;1.94;100.00;101683.53;10463062;28;20047;-92
2022/12/08 08:10:20;;;;;;;5.13;2.47;;;;;;;1.67;100.00;101636.88;10461922;28;20037;-90
2022/12/08 08:15:21;;;;;;;4.97;2.20;;;;;;;1.59;100.00;101618.13;10461828;28;20047;-90
2022/12/08 08:20:21;;;;;;;4.90;2.65;;;;;;;2.08;100.00;101696.78;10461154;28;20041;-91
2022/12/08 08:25:22;;;;;;;5.18;2.25;;;;;;;1.55;100.00;101598.22;10460901;28;20127;-91
2022/12/08 08:30:23;;;;;;;4.95;2.60;;;;;;;2.01;100.00;101675.28;10461821;28;20048;-91
2022/12/08 08:35:24;;;;;;;4.00;2.38;;;;;;;1.74;100.00;101630.41;10460995;28;20432;-92
2022/12/08 08:40:25;;;;;;;5.05;2.05;;;;;;;2.13;100.00;101686.91;10460950;28;20094;-91
2022/12/08 08:45:27;;;;;;;3.45;1.58;;;;;;;2.07;100.00;101679.38;10461144;28;20053;-91
2022/12/08 08:50:27;;;;;;;3.53;1.73;;;;;;;2.17;100.00;101677.94;10460505;28;20194;-90
2022/12/08 08:55:28;;;;;;;3.50;1.65;;;;;;;1.75;100.00;101618.16;10460342;28;20163;-90
2022/12/08 09:00:29;;;;;;;3.60;1.70;;;;;;;1.58;100.00;101579.72;10460702;28;20049;-90
2022/12/08 09:05:30;;;;;;;3.17;1.50;;;;;;;1.86;100.00;101623.69;10459856;28;20492;-89
2022/12/08 09:10:30;;;;;;;4.18;1.88;;;;;;;2.11;100.00;101675.66;10459450;28;20041;-90
2022/12/08 09:15:31;;;;;;;5.55;2.47;;;;;;;1.62;100.00;101599.63;10459505;28;20140;-90
2022/12/08 09:20:33;;;;;;;4.20;2.10;;;;;;;1.59;100.00;101595.38;10458229;28;20099;-90
2022/12/08 09:25:34;;;;;;;5.15;2.55;;;;;;;1.63;100.00;101598.69;10457683;28;20041;-86
2022/12/08 09:30:34;;;;;;;5.55;3.08;;;;;;;1.96;100.00;101637.16;10458664;28;20037;-90
2022/12/08 09:35:35;;;;;;;6.53;3.05;;;;;;;1.59;100.00;101578.81;10458345;28;20048;-90
2022/12/08 09:40:51;;;;;;;5.90;3.28;;;;;;;1.92;100.00;101620.75;10458817;28;20098;-90
2022/12/08 09:45:53;;;;;;;6.43;3.65;;;;;;;2.18;100.00;101649.94;10457583;28;20056;-91
2022/12/08 09:50:55;;;;;;;9.52;4.18;;;;;;;2.18;100.00;101674.38;10458657;28;20064;-91
2022/12/08 09:56:06;;;;;;;7.35;4.35;;;;;;;2.18;100.00;101650.78;10458757;28;20037;-89
2022/12/08 10:01:10;;;;;;;8.52;4.28;;;;;;;1.71;100.00;101588.66;10457068;28;20056;-91
2022/12/08 10:06:19;;;;;;;6.45;3.78;;;;;;;2.17;100.00;101656.97;10457018;28;20094;-90
2022/12/08 10:11:35;;;;;;;9.73;4.00;;;;;;;1.96;100.00;101629.28;10458357;28;20063;-90
2022/12/08 10:16:40;;;;;;;9.80;3.95;;;;;;;1.63;100.00;101572.50;10457862;28;20033;-90
2022/12/08 10:21:41;;;;;;;9.00;3.58;;;;;;;2.04;100.00;101643.69;10457689;28;20044;-89
2022/12/08 10:26:42;;;;;;;9.40;3.45;;;;;;;1.79;100.00;101594.31;10457013;28;20041;-90
2022/12/08 10:31:42;;;;;;;9.52;3.08;;;;;;;1.80;100.00;101588.16;10457925;28;20048;-90
2022/12/08 10:36:52;;;;;;;7.30;3.40;;;;;;;1.80;100.00;101574.22;10457263;28;20051;-90
2022/12/08 10:41:58;;;;;;;14.02;4.22;;;;;;;2.23;100.00;101675.00;10457024;28;20449;-90
2022/12/08 10:47:10;;;;;;;11.65;4.30;;;;;;;1.86;100.00;101597.50;10457729;28;20147;-90
2022/12/08 10:52:24;;;;;;;12.20;4.82;;;;;;;1.91;100.00;101605.94;10457369;28;20049;-93
2022/12/08 10:57:24;;;;;;;13.73;5.45;;;;;;;2.10;100.00;101645.13;10456714;28;20041;-91
2022/12/08 11:02:25;;;;;;;15.73;5.10;;;;;;;2.01;100.00;101635.97;10457140;28;20044;-89
2022/12/08 11:07:27;;;;;;;10.77;4.38;;;;;;;1.98;100.00;101638.75;10457592;28;20120;-91
2022/12/08 11:12:29;;;;;;;14.50;5.00;;;;;;;1.51;100.00;101567.91;10457237;28;20041;-92
2022/12/08 11:17:40;;;;;;;17.88;4.78;;;;;;;2.19;100.00;101676.09;10457419;28;20041;-91
2022/12/08 11:22:45;;;;;;;20.13;5.38;;;;;;;1.53;100.00;101566.06;10457187;28;20047;-91
2022/12/08 11:27:48;;;;;;;15.32;4.97;;;;;;;1.98;100.00;101638.75;10457476;28;20405;-91
2022/12/08 11:32:56;;;;;;;21.45;5.13;;;;;;;2.13;100.00;101655.47;10456166;28;20515;-91
2022/12/08 11:38:04;;;;;;;11.68;4.70;;;;;;;2.26;100.00;101666.97;10463150;28;20037;-90
2022/12/08 11:43:11;;;;;;;12.68;5.20;;;;;;;2.18;100.00;101650.78;10461869;28;20044;-91
2022/12/08 11:48:16;;;;;;;16.88;5.30;;;;;;;2.28;100.00;101667.75;10461717;28;20450;-90
2022/12/08 11:54:02;;;;;;;14.43;5.32;;;;;;;2.39;100.00;101663.69;10461392;28;20127;-91
2022/12/08 11:59:28;;;;;;;22.00;5.65;;;;;;;2.40;100.00;101660.16;10459206;28;20049;-91
2022/12/08 12:04:32;;;;;;;12.25;4.70;;;;;;;2.39;100.00;101667.16;10456808;28;20056;-86
2022/12/08 12:09:35;;;;;;;15.23;5.78;;;;;;;2.44;100.00;101656.41;10460425;28;20401;-91
2022/12/08 12:14:38;;;;;;;11.52;4.50;;;;;;;2.47;100.00;101664.13;10459222;28;20072;-91
2022/12/08 12:19:41;;;;;;;12.90;5.32;;;;;;;2.51;100.00;101665.63;10456387;28;20409;-86
2022/12/08 12:24:49;;;;;;;15.67;5.77;;;;;;;2.58;100.00;101664.38;10436711;28;20057;-87
2022/12/08 12:29:56;;;;;;;15.65;6.03;;;;;;;2.60;100.00;101666.91;10441442;28;20098;-85
2022/12/08 12:35:00;;;;;;;12.88;4.50;;;;;;;2.13;100.00;101587.31;10445727;28;20037;-82
2022/12/08 12:40:05;;;;;;;7.57;4.00;;;;;;;2.62;100.00;101663.28;10425066;28;20045;-85
2022/12/08 12:45:11;;;;;;;12.07;3.92;;;;;;;2.61;100.00;101668.63;10433625;28;20642;-86
2022/12/08 12:50:33;;;;;;;8.00;4.45;;;;;;;2.64;100.00;101687.66;10434869;28;20041;-83
2022/12/08 12:55:54;;;;;;;11.77;4.15;;;;;;;2.66;100.00;101679.69;10448952;28;20463;-83
2022/12/08 13:01:13;;;;;;;14.55;3.95;;;;;;;2.62;100.00;101689.50;10445923;28;20086;-85
2022/12/08 13:06:21;;;;;;;13.50;3.97;;;;;;;2.51;100.00;101665.63;10446302;28;20061;-85
2022/12/08 13:11:23;;;;;;;11.85;5.25;;;;;;;2.21;100.00;101624.41;10452563;28;20120;-85
2022/12/08 13:16:27;;;;;;;8.35;3.80;;;;;;;2.24;100.00;101636.50;10443460;28;20041;-84
2022/12/08 13:21:38;;;;;;;14.20;4.47;;;;;;;2.21;100.00;101618.31;10446920;28;20049;-84
2022/12/08 13:26:44;;;;;;;16.17;4.47;;;;;;;2.13;100.00;101605.66;10430929;28;20036;-82
2022/12/08 13:31:56;;;;;;;16.50;5.18;;;;;;;2.57;100.00;101685.44;10434250;28;20053;-84
2022/12/08 13:37:09;;;;;;;15.65;7.10;;;;;;;2.45;100.00;101663.34;10441575;28;20045;-83
2022/12/08 13:42:32;;;;;;;13.25;6.65;;;;;;;2.55;100.00;101676.84;10450290;28;20047;-84
2022/12/08 13:47:36;;;;;;;13.43;5.65;;;;;;;2.66;100.00;101692.81;10442563;28;20059;-85
2022/12/08 13:52:44;;;;;;;27.50;5.73;;;;;;;2.71;100.00;101691.63;10474239;28;20032;-82
2022/12/08 13:57:49;;;;;;;10.63;4.13;;;;;;;2.31;100.00;101627.41;10470433;28;20032;-82
2022/12/08 14:02:54;;;;;;;14.48;5.03;;;;;;;2.79;100.00;101693.00;10469833;28;20044;-81
2022/12/08 14:07:55;;;;;;;13.65;6.22;;;;;;;2.55;100.00;101664.56;10448344;28;20044;-85
2022/12/08 14:13:11;;;;;;;11.55;4.18;;;;;;;2.78;100.00;101693.91;10446663;28;20040;-84
2022/12/08 14:18:29;;;;;;;7.43;3.30;;;;;;;2.78;100.00;101712.28;10437011;28;20033;-84
2022/12/08 14:23:34;;;;;;;13.05;4.60;;;;;;;2.72;100.00;101703.84;10445116;28;20037;-84
2022/12/08 14:28:36;;;;;;;10.95;4.47;;;;;;;2.68;100.00;101702.31;10434377;28;20472;-85
2022/12/08 14:33:37;;;;;;;10.05;4.05;;;;;;;1.82;100.00;101560.13;10455402;28;20102;-85
2022/12/08 14:38:38;;;;;;;10.85;4.32;;;;;;;2.67;100.00;101718.97;10453264;28;20063;-83
2022/12/08 14:43:42;;;;;;;11.93;3.90;;;;;;;2.51;100.00;101705.84;10454480;28;20080;-83
2022/12/08 14:48:43;;;;;;;11.13;3.92;;;;;;;2.46;100.00;101714.91;10454061;28;20047;-82
2022/12/08 14:53:52;;;;;;;13.93;3.80;;;;;;;2.32;100.00;101693.81;10469073;28;20521;-83
2022/12/08 14:59:19;;;;;;;10.68;3.80;;;;;;;2.44;100.00;101724.63;10453839;28;20048;-82
2022/12/08 15:04:26;;;;;;;12.07;3.55;;;;;;;1.86;100.00;101667.41;10455557;28;20047;-83
2022/12/08 15:09:48;;;;;;;10.55;3.80;;;;;;;2.03;100.00;101696.16;10459567;28;20036;-81
2022/12/08 15:15:13;;;;;;;10.05;3.85;;;;;;;2.20;100.00;101732.84;10445219;28;20065;-81
2022/12/08 15:20:32;;;;;;;12.13;4.13;;;;;;;2.19;100.00;101746.88;10461490;28;20037;-86
2022/12/08 15:25:34;;;;;;;11.90;3.83;;;;;;;2.13;100.00;101749.00;10461323;28;20045;-86
2022/12/08 15:30:34;;;;;;;7.95;4.10;;;;;;;2.06;100.00;101745.81;10452311;28;20428;-83
2022/12/08 15:35:35;;;;;;;9.35;4.18;;;;;;;1.35;100.00;101623.66;10438078;28;20045;-79
2022/12/08 15:40:36;;;;;;;7.05;3.33;;;;;;;2.04;100.00;101753.75;10450781;28;20163;-88
2022/12/08 15:45:37;;;;;;;8.85;3.70;;;;;;;1.41;100.00;101655.69;10446090;28;20083;-86
2022/12/08 15:50:38;;;;;;;11.55;4.03;;;;;;;1.90;100.00;101750.16;10419883;28;20042;-85
2022/12/08 15:55:39;;;;;;;10.80;4.00;;;;;;;1.72;100.00;101726.56;10427808;28;20432;-87
2022/12/08 16:00:40;;;;;;;11.13;4.25;;;;;;;1.68;100.00;101726.81;10479539;28;20400;-90
2022/12/08 16:05:41;;;;;;;9.35;4.75;;;;;;;0.84;100.00;101601.78;10481092;28;20043;-89
2022/12/08 16:10:43;;;;;;;9.32;4.93;;;;;;;1.17;100.00;101662.97;10479688;28;20041;-88
2022/12/08 16:15:43;;;;;;;8.77;5.20;;;;;;;1.53;100.00;101731.03;10473114;28;20048;-90
2022/12/08 16:20:44;;;;;;;11.05;5.18;;;;;;;1.13;100.00;101680.59;10460183;28;20045;-90
2022/12/08 16:25:45;;;;;;;12.52;5.85;;;;;;;1.37;100.00;101723.06;10460853;28;20068;-88
2022/12/08 16:30:47;;;;;;;10.98;5.82;;;;;;;1.29;100.00;101725.22;10468235;28;20118;-84
2022/12/08 16:35:47;;;;;;;9.88;5.45;;;;;;;1.03;100.00;101689.84;10476886;28;20562;-89
2022/12/08 16:46:22;;;;;;;13.43;6.03;;;;;;;1.17;100.00;101733.66;10432672;28;20060;-91
2022/12/08 16:51:22;;;;;;;12.95;5.32;;;;;;;1.16;100.00;101732.81;10472371;28;20043;-88
2022/12/08 16:56:23;;;;;;;7.90;5.05;;;;;;;1.16;100.00;101745.06;10476897;28;20484;-87
2022/12/08 17:01:24;;;;;;;10.30;4.78;;;;;;;0.33;100.00;101603.34;10478952;28;20039;-90
2022/12/08 17:06:25;;;;;;;9.88;4.75;;;;;;;1.15;100.00;101741.59;10476408;28;20127;-85
2022/12/08 17:11:27;;;;;;;9.98;4.57;;;;;;;0.98;100.00;101718.81;10471542;28;20037;-87
2022/12/08 17:16:28;;;;;;;9.02;4.38;;;;;;;1.00;100.00;101730.09;10475445;28;20098;-85
2022/12/08 17:21:28;;;;;;;9.10;4.25;;;;;;;1.05;100.00;101746.41;10473901;28;20037;-88
2022/12/08 17:26:29;;;;;;;8.68;3.95;;;;;;;0.96;100.00;101735.50;10476475;28;20032;-88
2022/12/08 17:31:31;;;;;;;6.63;3.22;;;;;;;1.04;100.00;101756.94;10478191;28;20040;-88
2022/12/08 17:36:32;;;;;;;9.63;3.60;;;;;;;0.97;100.00;101743.31;10472397;28;20079;-89
2022/12/08 17:41:33;;;;;;;7.90;3.00;;;;;;;0.61;100.00;101683.09;10478401;28;20558;-87
2022/12/08 17:46:34;;;;;;;10.25;3.20;;;;;;;0.77;100.00;101718.06;10475704;28;20052;-87
2022/12/08 17:51:35;;;;;;;8.00;3.13;;;;;;;0.78;100.00;101713.69;10477357;28;20037;-89
2022/12/08 17:56:35;;;;;;;13.90;3.47;;;;;;;0.74;100.00;101726.06;10474108;28;20040;-87
2022/12/08 18:01:37;;;;;;;11.30;3.65;;;;;;;0.87;100.00;101742.06;10477361;28;20045;-89
2022/12/08 18:06:39;;;;;;;12.73;3.40;;;;;;;0.86;100.00;101741.19;10465702;28;20037;-88
2022/12/08 18:11:40;;;;;;;6.63;2.80;;;;;;;0.77;100.00;101731.16;10463568;28;20464;-89
2022/12/08 18:16:46;;;;;;;9.23;3.45;;;;;;;0.71;100.00;101712.28;10462408;28;20040;-88
2022/12/08 18:21:46;;;;;;;6.25;2.95;;;;;;;0.85;100.00;101747.34;10470913;28;20045;-86
2022/12/08 18:26:47;;;;;;;8.77;3.20;;;;;;;0.85;100.00;101749.13;10475224;28;20040;-86
2022/12/08 18:31:49;;;;;;;6.22;2.78;;;;;;;0.82;100.00;101739.63;10474403;28;20041;-86
2022/12/08 18:36:50;;;;;;;9.43;3.28;;;;;;;0.80;100.00;101746.69;10473695;28;20049;-87
2022/12/08 18:41:52;;;;;;;6.72;2.90;;;;;;;0.71;100.00;101726.19;10482683;28;20055;-88
2022/12/08 18:46:53;;;;;;;9.07;2.88;;;;;;;0.51;100.00;101692.25;10440533;28;20413;-90
2022/12/08 18:51:53;;;;;;;7.13;2.85;;;;;;;0.81;100.00;101742.34;10421849;28;20041;-88
2022/12/08 18:56:54;;;;;;;5.88;3.08;;;;;;;0.51;100.00;101692.25;10434946;28;20068;-87
2022/12/08 19:01:56;;;;;;;6.50;2.65;;;;;;;0.71;100.00;101730.59;10462326;28;20041;-88
2022/12/08 19:06:57;;;;;;;5.15;2.45;;;;;;;0.26;100.00;101667.25;10461614;28;20048;-86
2022/12/08 19:11:58;;;;;;;7.15;2.70;;;;;;;0.55;100.00;101715.59;10476755;28;20037;-84
2022/12/08 19:16:59;;;;;;;7.55;2.80;;;;;;;0.70;100.00;101740.19;10462203;28;20051;-82
2022/12/08 19:22:00;;;;;;;5.22;2.40;;;;;;;0.56;100.00;101719.06;10460896;28;20055;-86
2022/12/08 19:27:02;;;;;;;8.73;2.85;;;;;;;0.66;100.00;101743.88;10460212;28;20041;-85
2022/12/08 19:32:03;;;;;;;4.72;2.53;;;;;;;0.35;100.00;101692.13;10460761;28;20562;-86
2022/12/08 19:37:05;;;;;;;6.65;2.92;;;;;;;0.64;100.00;101743.94;10460394;28;20040;-83
2022/12/08 19:47:34;;;;;;;4.22;2.10;;;;;;;0.67;100.00;101741.19;10461226;28;20053;-83
2022/12/08 19:52:35;;;;;;;8.32;2.60;;;;;;;0.26;100.00;101672.47;10459690;28;20037;-86
2022/12/08 19:57:36;;;;;;;8.73;2.47;;;;;;;0.65;100.00;101747.41;10459880;28;20056;-85
2022/12/08 20:02:37;;;;;;;8.43;2.92;;;;;;;0.53;100.00;101724.44;10459387;28;20029;-85
2022/12/08 20:07:38;;;;;;;4.95;2.13;;;;;;;0.20;100.00;101663.13;10460246;28;20049;-87
2022/12/08 20:12:39;;;;;;;6.20;2.08;;;;;;;0.61;100.00;101727.53;10459790;28;20037;-85
2022/12/08 20:17:41;;;;;;;7.57;2.38;;;;;;;0.57;100.00;101719.00;10459608;28;20135;-87
2022/12/08 20:22:44;;;;;;;5.63;2.13;;;;;;;0.61;100.00;101720.53;10459087;28;20041;-86
2022/12/08 20:27:44;;;;;;;4.72;2.30;;;;;;;0.62;100.00;101717.00;10458048;28;20518;-88
2022/12/08 20:32:45;;;;;;;6.15;2.63;;;;;;;0.11;100.00;101641.81;10459405;28;20075;-89
2022/12/08 20:37:46;;;;;;;6.03;2.38;;;;;;;0.48;100.00;101714.19;10459027;28;20037;-86
2022/12/08 20:42:48;;;;;;;5.35;2.45;;;;;;;0.61;100.00;101722.31;10459054;28;20086;-85
2022/12/08 20:47:49;;;;;;;5.18;2.47;;;;;;;0.52;100.00;101715.75;10491052;28;20065;-86
2022/12/08 20:52:49;;;;;;;5.10;2.40;;;;;;;0.46;100.00;101700.34;10457342;28;20106;-85
2022/12/08 20:57:50;;;;;;;7.88;2.70;;;;;;;0.39;100.00;101697.16;10457297;28;20087;-84
2022/12/08 21:02:51;;;;;;;8.43;2.65;;;;;;;0.61;100.00;101736.25;10458159;28;20099;-85
2022/12/08 21:07:52;;;;;;;7.13;2.50;;;;;;;0.56;100.00;101717.28;10455969;28;20562;-85
2022/12/08 21:12:53;;;;;;;10.70;2.50;;;;;;;0.61;100.00;101714.47;10457009;28;20127;-84
2022/12/08 21:17:53;;;;;;;6.65;2.25;;;;;;;0.39;100.00;101688.44;10457077;28;20135;-86
2022/12/08 21:22:54;;;;;;;7.28;2.10;;;;;;;0.55;100.00;101717.38;10456057;28;20037;-85
2022/12/08 21:27:55;;;;;;;10.80;2.13;;;;;;;0.55;100.00;101712.97;10456300;28;20044;-86
2022/12/08 21:32:56;;;;;;;6.47;2.00;;;;;;;0.09;100.00;101627.94;10455599;28;20044;-84
2022/12/08 21:37:57;;;;;;;4.00;2.00;;;;;;;0.42;100.00;101689.16;10456727;28;20044;-86
2022/12/08 21:42:58;;;;;;;10.95;1.98;;;;;;;0.11;100.00;101634.81;10455299;28;20041;-86
2022/12/08 21:47:59;;;;;;;5.63;1.88;;;;;;;0.50;100.00;101699.25;10456140;28;20183;-88
2022/12/08 21:52:59;;;;;;;9.13;2.35;;;;;;;0.50;100.00;101686.19;10455649;28;20045;-87
2022/12/08 21:58:00;;;;;;;6.50;2.28;;;;;;;0.50;100.00;101698.41;10454946;28;20037;-86
2022/12/08 22:03:02;;;;;;;4.97;2.03;;;;;;;0.52;100.00;101697.44;10455675;28;20101;-86
2022/12/08 22:08:03;;;;;;;5.15;2.20;;;;;;;0.51;100.00;101697.50;10455692;28;20098;-86
2022/12/08 22:13:04;;;;;;;11.48;2.30;;;;;;;0.50;100.00;101696.66;10454655;28;20064;-86
2022/12/08 22:18:05;;;;;;;6.38;2.20;;;;;;;0.23;100.00;101649.09;10453479;28;20043;-83
2022/12/08 22:23:06;;;;;;;5.00;1.80;;;;;;;0.38;100.00;101665.84;10453274;28;20047;-88
2022/12/08 22:28:07;;;;;;;8.50;2.33;;;;;;;0.50;100.00;101690.56;10454011;28;20043;-88
2022/12/08 22:33:07;;;;;;;7.43;2.90;;;;;;;0.37;100.00;101670.22;10453810;28;20040;-86
2022/12/08 22:38:08;;;;;;;5.43;2.20;;;;;;;0.50;100.00;101691.41;10453045;28;20181;-86
2022/12/08 22:43:09;;;;;;;6.55;2.05;;;;;;;0.12;100.00;101630.44;10454511;28;20053;-87
2022/12/08 22:48:10;;;;;;;8.20;2.72;;;;;;;0.04;100.00;101615.13;10454547;28;20053;-87
2022/12/08 22:53:11;;;;;;;6.30;2.65;;;;;;;0.51;100.00;101695.75;10453290;28;20424;-85
2022/12/08 22:58:12;;;;;;;9.10;2.75;;;;;;;0.25;100.00;101649.88;10453295;28;20044;-86
2022/12/08 23:03:13;;;;;;;5.30;2.58;;;;;;;-0.02;100.00;101602.31;10454237;28;20045;-87
2022/12/08 23:08:16;;;;;;;8.98;2.50;;;;;;;0.45;100.00;101675.97;10453812;28;20045;-87
2022/12/08 23:13:18;;;;;;;8.05;3.47;;;;;;;0.55;100.00;101696.44;10454159;28;20440;-87
2022/12/08 23:18:19;;;;;;;5.80;2.75;;;;;;;0.57;100.00;101687.63;10453643;28;20048;-87
2022/12/08 23:23:20;;;;;;;8.25;2.55;;;;;;;0.31;100.00;101644.38;10453675;28;20044;-87